Time;durP1;ratioP1;P1;durP2;ratioP2;P2;SDS_P1;SDS_P2;PMS_P1;PMS_P2;Temp;Humidity;BMP_temperature;BMP_pressure;BME280_temperature;BME280_humidity;BME280_pressure;Samples;Min_cycle;Max_cycle;Signal;HPM_P1;HPM_P2
2022/05/11 00:00:10;;;;;;;3.03;1.63;;;19.00;81.50;;;;;;6130342;23;20017;-85
2022/05/11 00:02:37;;;;;;;4.43;1.80;;;19.00;81.80;;;;;;6154936;23;20077;-85
2022/05/11 00:05:05;;;;;;;2.90;1.88;;;19.00;82.30;;;;;;6154554;23;20006;-85
2022/05/11 00:07:31;;;;;;;3.35;1.80;;;19.00;82.50;;;;;;6156741;23;20001;-85
2022/05/11 00:09:57;;;;;;;5.53;1.80;;;19.00;82.80;;;;;;6129978;23;20348;-85
2022/05/11 00:12:22;;;;;;;3.97;2.17;;;19.10;83.30;;;;;;6130272;23;20001;-85
2022/05/11 00:14:48;;;;;;;2.92;1.80;;;19.10;83.80;;;;;;6155225;23;20439;-85
2022/05/11 00:17:13;;;;;;;3.60;1.90;;;19.10;84.30;;;;;;6154574;23;20010;-85
2022/05/11 00:19:39;;;;;;;4.30;1.98;;;19.10;84.60;;;;;;6154924;23;20424;-85
2022/05/11 00:22:05;;;;;;;4.95;2.00;;;19.10;84.50;;;;;;6154652;23;20006;-84
2022/05/11 00:24:31;;;;;;;4.82;2.40;;;19.10;84.60;;;;;;6152066;23;20009;-85
2022/05/11 00:26:56;;;;;;;5.20;1.90;;;19.10;84.90;;;;;;6130149;23;20053;-85
2022/05/11 00:29:22;;;;;;;3.97;2.10;;;19.10;84.80;;;;;;6154391;23;20064;-85
2022/05/11 00:31:48;;;;;;;4.88;2.30;;;19.10;84.70;;;;;;6154637;23;20427;-85
2022/05/11 00:34:13;;;;;;;3.72;1.88;;;19.10;85.10;;;;;;6154046;23;20002;-85
2022/05/11 00:36:39;;;;;;;3.88;1.90;;;19.10;84.80;;;;;;6153932;23;20483;-85
2022/05/11 00:39:05;;;;;;;5.60;2.38;;;19.00;84.60;;;;;;6130405;23;20010;-85
2022/05/11 00:41:30;;;;;;;6.00;2.67;;;19.00;84.60;;;;;;6155121;23;20072;-85
2022/05/11 00:44:01;;;;;;;5.93;2.20;;;19.00;84.60;;;;;;6156978;23;20511;-85
2022/05/11 00:46:39;;;;;;;6.13;2.10;;;19.00;84.10;;;;;;6156891;23;20021;-86
2022/05/11 00:49:34;;;;;;;4.22;2.42;;;19.00;84.40;;;;;;6155030;23;20428;-85
2022/05/11 00:52:23;;;;;;;4.18;2.20;;;18.90;84.30;;;;;;6157092;23;20010;-86
2022/05/11 00:54:59;;;;;;;4.78;2.35;;;19.00;84.20;;;;;;6156796;23;20053;-85
2022/05/11 00:57:37;;;;;;;4.90;2.38;;;18.90;84.00;;;;;;6158432;23;20001;-85
2022/05/11 01:00:08;;;;;;;3.95;2.33;;;18.90;83.80;;;;;;6159354;23;20013;-86
2022/05/11 01:02:34;;;;;;;;;;;18.80;83.80;;;;;;6161386;23;20053;-84
2022/05/11 01:05:04;;;;;;;4.85;2.60;;;18.80;84.10;;;;;;6157493;23;20286;-85
2022/05/11 01:07:29;;;;;;;5.70;2.97;;;18.80;84.30;;;;;;6155082;23;20001;-85
2022/05/11 01:09:56;;;;;;;5.50;2.60;;;18.80;84.20;;;;;;6154899;23;20108;-85
2022/05/11 01:12:32;;;;;;;6.72;2.70;;;18.80;83.90;;;;;;6156419;23;20004;-85
2022/05/11 01:15:04;;;;;;;4.47;2.38;;;18.70;83.80;;;;;;6156471;23;20029;-85
2022/05/11 01:17:31;;;;;;;6.93;3.35;;;18.70;83.90;;;;;;6155020;23;20408;-85
2022/05/11 01:19:57;;;;;;;5.22;3.00;;;18.70;83.90;;;;;;6156002;23;20085;-85
2022/05/11 01:22:46;;;;;;;5.93;3.00;;;18.60;83.60;;;;;;6154824;23;20038;-86
2022/05/11 01:25:15;;;;;;;4.28;2.67;;;18.60;83.30;;;;;;6130365;23;20072;-86
2022/05/11 01:27:43;;;;;;;4.47;2.55;;;18.60;83.30;;;;;;6156261;23;20006;-85
2022/05/11 01:30:13;;;;;;;4.75;3.00;;;18.50;83.20;;;;;;6129945;23;20032;-85
2022/05/11 01:32:41;;;;;;;6.47;2.72;;;18.50;83.30;;;;;;6130234;23;20428;-85
2022/05/11 01:35:45;;;;;;;6.93;2.90;;;18.50;83.50;;;;;;6156724;23;20092;-86
2022/05/11 01:38:13;;;;;;;6.70;2.78;;;18.50;83.70;;;;;;6132218;23;20008;-86
2022/05/11 01:40:39;;;;;;;6.32;3.20;;;18.50;83.90;;;;;;6132519;23;20059;-86
2022/05/11 01:43:05;;;;;;;9.82;3.20;;;18.40;83.80;;;;;;6108155;23;20009;-85
2022/05/11 01:45:31;;;;;;;6.43;2.78;;;18.40;83.80;;;;;;6157895;23;20424;-85
2022/05/11 01:47:57;;;;;;;4.85;2.83;;;18.40;83.90;;;;;;6107900;23;20403;-85
2022/05/11 01:50:24;;;;;;;4.50;3.10;;;18.40;83.70;;;;;;6131983;23;20006;-85
2022/05/11 01:52:49;;;;;;;6.35;2.75;;;18.30;83.60;;;;;;6131903;23;20001;-85
2022/05/11 01:55:16;;;;;;;6.53;2.85;;;18.30;83.60;;;;;;6107599;23;20006;-86
2022/05/11 01:57:41;;;;;;;7.72;3.20;;;18.30;83.50;;;;;;6132226;23;20006;-86
2022/05/11 02:00:09;;;;;;;5.13;3.05;;;18.20;83.50;;;;;;6106924;23;20099;-86
2022/05/11 02:02:35;;;;;;;5.25;3.03;;;18.20;83.70;;;;;;6132093;23;20008;-85
2022/05/11 02:07:51;;;;;;;6.50;3.03;;;18.20;83.70;;;;;;6135762;23;20019;-85
2022/05/11 02:10:22;;;;;;;7.28;3.17;;;18.20;83.60;;;;;;6131335;23;20013;-85
2022/05/11 02:12:48;;;;;;;;;;;18.10;83.50;;;;;;6132349;23;20008;-85
2022/05/11 02:15:14;;;;;;;5.85;3.10;;;18.10;83.40;;;;;;6131276;23;19905;-86
2022/05/11 02:17:42;;;;;;;4.53;2.83;;;18.10;83.40;;;;;;6131237;23;20442;-85
2022/05/11 02:20:09;;;;;;;5.30;3.05;;;18.00;83.50;;;;;;6158397;23;20005;-85
2022/05/11 02:22:36;;;;;;;6.93;3.08;;;18.00;83.70;;;;;;6131124;23;20024;-85
2022/05/11 02:25:02;;;;;;;5.85;3.47;;;18.00;84.00;;;;;;6131816;23;20511;-85
2022/05/11 02:27:27;;;;;;;5.80;2.95;;;18.00;84.20;;;;;;6132021;23;20008;-85
2022/05/11 02:29:53;;;;;;;6.07;3.30;;;18.00;84.40;;;;;;6131402;23;20064;-85
2022/05/11 02:32:19;;;;;;;7.75;3.38;;;18.00;84.30;;;;;;6107193;23;20010;-86
2022/05/11 02:37:29;;;;;;;4.22;3.08;;;18.00;84.60;;;;;;6157369;23;20014;-85
2022/05/11 02:39:54;;;;;;;6.05;3.00;;;18.00;84.70;;;;;;6107197;23;20428;-85
2022/05/11 02:42:20;;;;;;;7.90;3.08;;;18.10;85.10;;;;;;6157095;23;20002;-85
2022/05/11 02:44:45;;;;;;;6.28;2.95;;;18.10;85.10;;;;;;6131563;23;20375;-85
2022/05/11 02:47:12;;;;;;;8.40;3.25;;;18.10;85.10;;;;;;6130933;23;20012;-85
2022/05/11 02:49:38;;;;;;;5.55;3.10;;;18.10;85.10;;;;;;6131228;23;20056;-86
2022/05/11 02:52:04;;;;;;;9.18;3.70;;;18.10;85.20;;;;;;6157814;23;20025;-85
2022/05/11 02:54:30;;;;;;;6.07;3.00;;;18.10;85.60;;;;;;6106750;23;20013;-86
2022/05/11 02:56:55;;;;;;;5.47;3.30;;;18.10;85.60;;;;;;6131382;23;20001;-85
2022/05/11 02:59:21;;;;;;;5.20;3.20;;;18.10;85.50;;;;;;6131285;23;20324;-85
2022/05/11 03:01:51;;;;;;;5.72;3.53;;;18.10;85.60;;;;;;6107434;23;20013;-85
2022/05/11 03:04:18;;;;;;;6.20;3.70;;;18.10;85.90;;;;;;6131592;23;20005;-86
2022/05/11 03:06:47;;;;;;;5.50;3.28;;;18.10;86.00;;;;;;6132862;23;20084;-86
2022/05/11 03:09:14;;;;;;;5.93;3.35;;;18.10;86.10;;;;;;6157916;23;20032;-85
2022/05/11 03:11:42;;;;;;;5.07;3.20;;;18.10;85.90;;;;;;6107868;23;20096;-85
2022/05/11 03:14:09;;;;;;;6.28;3.28;;;18.10;86.10;;;;;;6131618;23;20009;-85
2022/05/11 03:16:35;;;;;;;5.80;3.55;;;18.10;86.50;;;;;;6132198;23;20008;-85
2022/05/11 03:19:02;;;;;;;8.65;4.03;;;18.10;86.90;;;;;;6106976;23;20014;-85
2022/05/11 03:21:28;;;;;;;6.13;3.53;;;18.10;87.00;;;;;;6108004;23;20009;-85
2022/05/11 03:23:54;;;;;;;6.68;3.65;;;18.10;86.70;;;;;;6157498;23;20045;-85
2022/05/11 03:26:21;;;;;;;5.85;3.80;;;18.10;86.60;;;;;;6106747;23;20021;-86
2022/05/11 03:28:47;;;;;;;7.38;3.55;;;18.00;86.60;;;;;;6108515;23;20001;-85
2022/05/11 03:31:13;;;;;;;8.15;3.85;;;18.00;87.30;;;;;;6131657;23;20032;-85
2022/05/11 03:36:24;;;;;;;5.60;3.45;;;17.90;86.50;;;;;;6156905;23;20075;-86
2022/05/11 03:38:50;;;;;;;9.77;3.45;;;17.90;86.30;;;;;;6106878;23;20010;-85
2022/05/11 03:41:16;;;;;;;6.38;3.55;;;17.90;86.60;;;;;;6106614;23;20052;-85
2022/05/11 03:43:42;;;;;;;7.05;3.35;;;17.80;86.60;;;;;;6106488;23;20009;-86
2022/05/11 03:46:08;;;;;;;6.15;3.45;;;17.80;86.80;;;;;;6130963;23;20002;-86
2022/05/11 03:48:35;;;;;;;7.03;4.07;;;17.80;87.00;;;;;;6157213;23;20009;-85
2022/05/11 03:51:00;;;;;;;5.75;3.47;;;17.70;87.30;;;;;;6157270;23;20002;-85
2022/05/11 03:53:26;;;;;;;7.68;3.50;;;17.70;87.50;;;;;;6131556;23;20044;-85
2022/05/11 03:55:53;;;;;;;7.28;3.28;;;17.70;87.40;;;;;;6158780;23;20033;-85
2022/05/11 03:58:18;;;;;;;4.82;2.95;;;17.70;87.30;;;;;;6134952;23;20029;-85
2022/05/11 04:00:45;;;;;;;5.63;3.42;;;17.70;87.40;;;;;;6134473;23;20017;-85
2022/05/11 04:03:10;;;;;;;7.90;3.33;;;17.70;88.00;;;;;;6133326;23;20081;-85
2022/05/11 04:05:37;;;;;;;5.75;2.85;;;17.70;87.20;;;;;;6133244;23;20428;-85
2022/05/11 04:08:02;;;;;;;5.28;3.38;;;17.70;87.30;;;;;;6132648;23;20008;-85
2022/05/11 04:10:28;;;;;;;7.85;3.10;;;17.70;87.30;;;;;;6131054;23;20005;-86
2022/05/11 04:12:54;;;;;;;4.45;3.00;;;17.60;87.20;;;;;;6132815;23;20025;-85
2022/05/11 04:15:19;;;;;;;4.43;2.70;;;17.70;87.20;;;;;;6114206;23;20005;-86
2022/05/11 04:17:45;;;;;;;5.07;2.85;;;17.70;87.10;;;;;;6139754;23;20048;-85
2022/05/11 04:20:14;;;;;;;6.07;2.80;;;17.60;86.80;;;;;;6110111;23;20021;-86
2022/05/11 04:22:40;;;;;;;5.40;2.60;;;17.60;86.80;;;;;;6131225;23;20341;-86
2022/05/11 04:25:06;;;;;;;5.10;2.70;;;17.60;86.80;;;;;;6132261;23;20008;-85
2022/05/11 04:27:33;;;;;;;5.90;2.55;;;17.60;86.90;;;;;;6130983;23;20012;-86
2022/05/11 04:30:00;;;;;;;5.15;2.42;;;17.60;86.80;;;;;;6131332;23;20002;-85
2022/05/11 04:32:26;;;;;;;6.07;2.60;;;17.60;86.80;;;;;;6131192;23;20015;-88
2022/05/11 04:34:51;;;;;;;12.82;3.28;;;17.60;86.70;;;;;;6131402;23;20483;-85
2022/05/11 04:37:18;;;;;;;6.43;2.50;;;17.60;86.80;;;;;;6106730;23;20010;-86
2022/05/11 04:39:44;;;;;;;3.17;2.40;;;17.50;86.80;;;;;;6131049;23;20016;-85
2022/05/11 04:42:11;;;;;;;4.05;2.00;;;17.60;86.80;;;;;;6107094;23;20017;-85
2022/05/11 04:44:37;;;;;;;4.95;2.40;;;17.60;86.80;;;;;;6157448;23;20003;-85
2022/05/11 04:47:13;;;;;;;7.07;2.75;;;17.50;86.60;;;;;;6131622;23;20495;-85
2022/05/11 04:49:40;;;;;;;5.28;2.55;;;17.50;86.50;;;;;;6132278;23;20064;-85
2022/05/11 04:52:08;;;;;;;5.40;2.63;;;17.50;86.50;;;;;;6107578;23;20017;-85
2022/05/11 04:54:48;;;;;;;3.63;1.95;;;17.50;86.60;;;;;;6131482;23;20006;-85
2022/05/11 04:57:14;;;;;;;4.45;2.42;;;17.60;86.60;;;;;;6132288;23;20029;-85
2022/05/11 04:59:40;;;;;;;3.90;2.55;;;17.60;86.50;;;;;;6131848;23;20013;-85
2022/05/11 05:02:07;;;;;;;5.95;2.20;;;17.60;86.50;;;;;;6132803;23;20377;-86
2022/05/11 05:04:33;;;;;;;4.85;2.35;;;17.60;86.40;;;;;;6133105;23;20001;-85
2022/05/11 05:06:59;;;;;;;4.15;2.20;;;17.60;86.40;;;;;;6110412;23;20012;-84
2022/05/11 05:09:25;;;;;;;6.13;2.00;;;17.60;86.40;;;;;;6141604;23;20012;-85
2022/05/11 05:11:52;;;;;;;4.00;2.30;;;17.60;86.30;;;;;;6155154;23;20013;-85
2022/05/11 05:14:18;;;;;;;3.78;2.00;;;17.60;86.20;;;;;;6156372;23;20020;-86
2022/05/11 05:16:44;;;;;;;7.68;2.83;;;17.60;86.20;;;;;;6158069;23;20025;-89
2022/05/11 05:19:10;;;;;;;6.68;2.25;;;17.60;86.30;;;;;;6130619;23;20013;-86
2022/05/11 05:21:36;;;;;;;3.83;2.53;;;17.60;86.40;;;;;;6153553;23;20328;-88
2022/05/11 05:24:02;;;;;;;3.03;2.05;;;17.60;86.40;;;;;;6147814;23;20005;-86
2022/05/11 05:26:27;;;;;;;5.45;2.50;;;17.60;86.50;;;;;;6177624;23;20025;-85
2022/05/11 05:31:38;;;;;;;5.05;2.38;;;17.60;86.60;;;;;;6160137;23;20068;-85
2022/05/11 05:34:04;;;;;;;4.32;2.13;;;17.60;86.60;;;;;;6158934;23;20381;-85
2022/05/11 05:36:32;;;;;;;4.43;2.03;;;17.60;86.70;;;;;;6158218;23;19997;-85
2022/05/11 05:38:58;;;;;;;3.42;1.90;;;17.60;86.70;;;;;;6159108;23;20001;-85
2022/05/11 05:41:26;;;;;;;4.78;2.25;;;17.70;87.10;;;;;;6158451;23;20048;-85
2022/05/11 05:43:52;;;;;;;3.42;2.47;;;17.70;87.30;;;;;;6155749;23;20024;-85
2022/05/11 05:46:18;;;;;;;6.20;2.40;;;17.70;87.10;;;;;;6131126;23;20368;-87
2022/05/11 05:48:44;;;;;;;4.75;2.50;;;17.70;87.10;;;;;;6155358;23;20113;-86
2022/05/11 05:51:12;;;;;;;3.85;2.30;;;17.70;87.10;;;;;;6132107;23;20014;-85
2022/05/11 05:53:40;;;;;;;4.05;2.13;;;17.70;87.10;;;;;;6131166;23;20081;-85
2022/05/11 05:56:07;;;;;;;3.55;2.22;;;17.70;87.20;;;;;;6131323;23;20484;-85
2022/05/11 05:58:33;;;;;;;4.78;2.65;;;17.80;87.40;;;;;;6156437;23;19998;-85
2022/05/11 06:00:59;;;;;;;5.90;2.80;;;17.70;87.50;;;;;;6157379;23;20029;-85
2022/05/11 06:03:28;;;;;;;5.32;2.65;;;17.70;87.50;;;;;;6173806;23;20012;-85
2022/05/11 06:05:54;;;;;;;4.30;2.20;;;17.70;87.60;;;;;;6180903;23;19981;-86
2022/05/11 06:08:21;;;;;;;5.43;2.40;;;17.80;87.80;;;;;;6165546;23;20503;-85
2022/05/11 06:10:48;;;;;;;6.10;2.25;;;17.80;87.90;;;;;;6139822;23;20029;-84
2022/05/11 06:13:16;;;;;;;5.45;2.67;;;17.80;88.00;;;;;;6170324;23;20041;-85
2022/05/11 06:15:42;;;;;;;4.07;2.38;;;17.80;87.70;;;;;;6157377;23;20005;-85
2022/05/11 06:18:12;;;;;;;4.90;2.33;;;17.80;87.30;;;;;;6159519;23;20002;-84
2022/05/11 06:20:38;;;;;;;4.32;2.55;;;17.80;85.70;;;;;;6158143;23;20036;-91
2022/05/11 06:23:05;;;;;;;4.22;2.00;;;17.80;84.90;;;;;;6159877;23;20018;-85
2022/05/11 06:25:32;;;;;;;4.63;2.33;;;17.90;84.70;;;;;;6135750;23;20340;-85
2022/05/11 06:27:58;;;;;;;7.28;2.70;;;17.90;84.90;;;;;;6138465;23;20029;-84
2022/05/11 06:30:25;;;;;;;4.00;2.33;;;17.90;84.70;;;;;;6178385;23;20064;-86
2022/05/11 06:32:51;;;;;;;6.70;2.60;;;17.90;84.20;;;;;;6182902;23;20005;-86
2022/05/11 06:35:17;;;;;;;4.97;2.67;;;17.90;83.40;;;;;;6159867;23;20006;-85
2022/05/11 06:37:44;;;;;;;5.60;2.40;;;17.90;82.90;;;;;;6159855;23;20005;-93
2022/05/11 06:40:13;;;;;;;5.90;2.28;;;17.90;82.90;;;;;;6183713;23;20004;-84
2022/05/11 06:42:39;;;;;;;6.38;2.22;;;18.00;83.30;;;;;;6184013;23;19994;-84
2022/05/11 06:45:06;;;;;;;6.30;2.35;;;18.00;83.00;;;;;;6184070;23;20034;-86
2022/05/11 06:47:35;;;;;;;4.25;1.83;;;18.10;82.80;;;;;;6184082;23;20036;-85
2022/05/11 06:50:01;;;;;;;5.68;2.00;;;18.10;82.20;;;;;;6158941;23;20000;-85
2022/05/11 06:52:27;;;;;;;3.55;1.88;;;18.20;81.30;;;;;;6182734;23;20017;-85
2022/05/11 07:00:28;;;;;;;5.38;2.05;;;18.30;81.10;;;;;;6182029;23;20032;-84
2022/05/11 07:02:54;;;;;;;6.70;2.22;;;18.40;81.20;;;;;;6179345;23;20148;-84
2022/05/11 07:05:19;;;;;;;5.18;2.03;;;18.40;80.70;;;;;;6177863;23;19993;-86
2022/05/11 07:07:45;;;;;;;5.85;1.80;;;18.50;79.40;;;;;;6145903;23;20002;-86
2022/05/11 07:10:11;;;;;;;5.25;2.17;;;18.60;78.80;;;;;;6136740;23;20016;-86
2022/05/11 07:12:45;;;;;;;4.55;1.77;;;18.60;78.40;;;;;;6179982;23;20029;-85
2022/05/11 07:15:11;;;;;;;6.00;1.90;;;18.70;77.90;;;;;;6183854;23;20005;-87
2022/05/11 07:17:46;;;;;;;7.18;2.28;;;18.80;77.70;;;;;;6159463;23;20004;-86
2022/05/11 07:20:15;;;;;;;4.72;1.60;;;18.80;77.20;;;;;;6183838;23;19996;-85
2022/05/11 07:22:41;;;;;;;4.72;1.45;;;18.90;76.90;;;;;;6183650;23;20012;-86
2022/05/11 07:25:10;;;;;;;4.95;1.85;;;18.90;76.60;;;;;;6184456;23;20006;-86
2022/05/11 07:27:36;;;;;;;9.75;2.28;;;19.00;74.50;;;;;;6183994;23;20009;-85
2022/05/11 07:30:04;;;;;;;7.35;1.83;;;19.10;74.00;;;;;;6158534;23;20000;-86
2022/05/11 07:32:29;;;;;;;6.85;2.05;;;19.10;74.80;;;;;;6158710;23;20000;-85
2022/05/11 07:34:55;;;;;;;6.90;2.20;;;19.10;73.10;;;;;;6184173;23;19985;-87
2022/05/11 07:37:21;;;;;;;6.10;2.00;;;19.20;73.40;;;;;;6134050;23;20046;-85
2022/05/11 07:39:47;;;;;;;5.43;1.80;;;19.20;73.20;;;;;;6183598;23;20021;-92
2022/05/11 07:42:13;;;;;;;5.38;1.98;;;19.30;72.90;;;;;;6134114;23;20045;-87
2022/05/11 07:44:39;;;;;;;9.88;2.15;;;19.30;72.90;;;;;;6131889;23;20005;-86
2022/05/11 07:47:06;;;;;;;4.57;1.95;;;19.30;72.80;;;;;;6156500;23;20029;-86
2022/05/11 07:49:32;;;;;;;5.10;1.98;;;19.30;73.00;;;;;;6153774;23;20013;-85
2022/05/11 07:51:57;;;;;;;6.20;2.10;;;19.40;72.90;;;;;;6156726;23;19997;-91
2022/05/11 07:54:23;;;;;;;5.55;1.80;;;19.40;72.30;;;;;;6154588;23;20037;-85
2022/05/11 08:02:20;;;;;;;5.18;1.60;;;19.50;67.80;;;;;;6143407;23;20092;-86
2022/05/11 08:04:45;;;;;;;5.47;1.52;;;19.40;67.10;;;;;;6107284;23;20002;-86
2022/05/11 08:07:15;;;;;;;6.85;1.25;;;19.40;68.10;;;;;;6131213;23;20036;-87
2022/05/11 08:09:41;;;;;;;6.17;1.50;;;19.40;67.40;;;;;;6131307;23;20017;-86
2022/05/11 08:12:08;;;;;;;7.05;1.65;;;19.50;66.80;;;;;;6156699;23;20327;-86
2022/05/11 08:14:33;;;;;;;4.70;1.30;;;19.50;67.20;;;;;;6105815;23;20044;-85
2022/05/11 08:16:59;;;;;;;6.70;1.40;;;19.50;67.00;;;;;;6106176;23;20005;-86
2022/05/11 08:19:26;;;;;;;6.05;1.15;;;19.60;66.10;;;;;;6131002;23;20381;-85
2022/05/11 08:21:54;;;;;;;4.68;1.27;;;19.60;66.40;;;;;;6131071;23;20005;-86
2022/05/11 08:24:21;;;;;;;5.82;1.27;;;19.60;66.20;;;;;;6124826;23;20313;-85
2022/05/11 08:26:50;;;;;;;4.40;1.33;;;19.60;66.60;;;;;;6156762;23;20436;-85
2022/05/11 08:33:19;;;;;;;4.32;1.30;;;19.70;66.80;;;;;;6157010;23;20049;-85
2022/05/11 08:34:49;;;;;;;4.60;1.65;;;19.80;67.50;;;;;;6156471;23;20080;-87
2022/05/11 08:37:14;;;;;;;5.28;1.30;;;19.90;67.60;;;;;;6155924;23;20423;-86
2022/05/11 08:39:40;;;;;;;5.18;1.48;;;20.00;66.70;;;;;;6155108;23;20148;-83
2022/05/11 08:42:06;;;;;;;3.45;1.30;;;20.00;65.90;;;;;;6155012;23;20013;-82
2022/05/11 08:44:34;;;;;;;7.97;1.38;;;20.00;65.10;;;;;;6130301;23;20092;-84
2022/05/11 08:47:03;;;;;;;4.93;1.63;;;20.10;65.70;;;;;;6130563;23;20009;-83
2022/05/11 08:49:41;;;;;;;6.18;1.27;;;20.00;65.70;;;;;;6156437;23;20005;-81
2022/05/11 08:52:16;;;;;;;5.68;1.38;;;20.10;65.40;;;;;;6163335;23;20002;-93
2022/05/11 08:54:59;;;;;;;6.25;1.55;;;20.10;65.20;;;;;;6177706;23;20009;-88
2022/05/11 08:57:26;;;;;;;5.97;1.52;;;20.10;65.00;;;;;;6183400;23;20005;-85
2022/05/11 09:00:06;;;;;;;6.82;1.50;;;20.10;65.40;;;;;;6179646;23;20025;-86
2022/05/11 09:02:45;;;;;;;6.32;1.95;;;20.10;65.60;;;;;;6178439;23;20004;-87
2022/05/11 09:05:14;;;;;;;5.70;1.70;;;20.20;65.70;;;;;;6180415;23;19989;-85
2022/05/11 09:07:44;;;;;;;2.88;1.02;;;20.20;65.70;;;;;;6183419;23;19994;-88
2022/05/11 09:10:15;;;;;;;6.43;1.50;;;20.30;66.50;;;;;;6162072;23;20060;-87
2022/05/11 09:12:41;;;;;;;6.22;1.50;;;20.40;66.80;;;;;;6156109;23;20245;-89
2022/05/11 09:15:07;;;;;;;5.03;1.73;;;20.40;66.40;;;;;;6156421;23;20045;-88
2022/05/11 09:17:36;;;;;;;4.18;1.50;;;20.50;65.20;;;;;;6157818;23;20005;-88
2022/05/11 09:20:12;;;;;;;4.07;1.58;;;20.50;64.90;;;;;;6156771;23;20024;-89
2022/05/11 09:22:52;;;;;;;5.10;1.75;;;20.60;64.80;;;;;;6157150;23;20045;-87
2022/05/11 09:25:21;;;;;;;5.13;1.60;;;20.60;65.10;;;;;;6133054;23;20380;-85
2022/05/11 09:27:48;;;;;;;9.18;2.08;;;20.60;65.50;;;;;;6138641;23;20006;-86
2022/05/11 09:30:19;;;;;;;6.72;1.73;;;20.70;65.80;;;;;;6140893;23;20014;-87
2022/05/11 09:32:46;;;;;;;5.88;1.65;;;20.80;65.40;;;;;;6133916;23;20006;-90
2022/05/11 09:35:14;;;;;;;5.32;1.70;;;20.80;65.50;;;;;;6132178;23;20002;-89
2022/05/11 09:37:44;;;;;;;5.25;1.88;;;20.90;65.90;;;;;;6158235;23;20001;-88
2022/05/11 09:40:22;;;;;;;7.10;1.70;;;21.00;66.40;;;;;;6158317;23;20001;-89
2022/05/11 09:43:07;;;;;;;6.97;1.65;;;21.10;66.80;;;;;;6158386;23;20463;-89
2022/05/11 09:45:45;;;;;;;8.25;1.70;;;21.20;66.90;;;;;;6137129;23;20001;-90
2022/05/11 09:48:24;;;;;;;3.95;1.40;;;21.20;67.00;;;;;;6133622;23;20011;-86
2022/05/11 09:50:54;;;;;;;5.60;1.70;;;21.30;67.30;;;;;;6157150;23;20001;-86
2022/05/11 09:53:34;;;;;;;3.67;1.60;;;21.40;67.70;;;;;;6130374;23;20020;-86
2022/05/11 09:56:26;;;;;;;7.05;1.90;;;21.50;66.50;;;;;;6131821;23;19998;-86
2022/05/11 09:58:52;;;;;;;5.68;1.83;;;21.60;66.60;;;;;;6132241;23;20012;-86
2022/05/11 10:01:36;;;;;;;8.48;2.13;;;21.60;66.40;;;;;;6132350;23;20041;-86
2022/05/11 10:04:06;;;;;;;6.65;2.50;;;21.60;66.20;;;;;;6159191;23;19993;-86
2022/05/11 10:06:47;;;;;;;8.15;2.10;;;21.70;66.00;;;;;;6108458;23;20025;-84
2022/05/11 10:09:15;;;;;;;6.75;1.95;;;21.70;66.70;;;;;;6132253;23;20483;-85
2022/05/11 10:11:50;;;;;;;5.15;1.90;;;21.80;65.80;;;;;;6158684;23;20035;-86
2022/05/11 10:23:02;;;;;;;6.72;2.10;;;21.90;64.30;;;;;;6135971;23;20320;-85
2022/05/11 10:25:39;;;;;;;6.88;2.30;;;22.00;64.10;;;;;;6130961;23;20021;-85
2022/05/11 10:28:25;;;;;;;6.10;1.85;;;22.00;63.40;;;;;;6158313;23;20324;-85
2022/05/11 10:31:14;;;;;;;9.85;2.65;;;22.00;63.80;;;;;;6133011;23;20420;-85
2022/05/11 10:33:59;;;;;;;6.30;2.05;;;22.00;64.10;;;;;;6117500;23;20016;-85
2022/05/11 10:36:31;;;;;;;5.60;2.15;;;22.00;64.10;;;;;;6133253;23;20021;-86
2022/05/11 10:39:14;;;;;;;6.88;2.13;;;22.10;64.60;;;;;;6133879;23;20032;-89
2022/05/11 10:42:05;;;;;;;5.63;2.10;;;22.10;65.00;;;;;;6133510;23;20009;-87
2022/05/11 10:44:38;;;;;;;8.57;2.58;;;22.20;65.10;;;;;;6133084;23;20005;-86
2022/05/11 10:47:32;;;;;;;5.60;1.80;;;22.30;64.50;;;;;;6133652;23;20061;-86
2022/05/11 10:50:21;;;;;;;4.10;1.50;;;22.40;63.30;;;;;;6156893;23;20001;-85
2022/05/11 10:52:56;;;;;;;7.97;1.85;;;22.40;63.10;;;;;;6148990;23;20084;-86
2022/05/11 10:55:28;;;;;;;3.97;1.55;;;22.40;63.00;;;;;;6159220;23;20002;-85
2022/05/11 10:58:12;;;;;;;7.35;1.52;;;22.50;63.10;;;;;;6133837;23;20009;-86
2022/05/11 11:00:47;;;;;;;5.03;1.50;;;22.50;63.40;;;;;;6132988;23;20006;-87
2022/05/11 11:03:37;;;;;;;5.57;1.30;;;22.60;63.50;;;;;;6133687;23;20052;-86
2022/05/11 11:09:21;;;;;;;4.82;1.35;;;22.80;63.90;;;;;;6158204;23;20340;-87
2022/05/11 11:11:59;;;;;;;5.28;1.52;;;22.80;63.30;;;;;;6133096;23;20001;-87
2022/05/11 11:14:35;;;;;;;4.88;1.60;;;22.90;61.60;;;;;;6132381;23;20016;-87
2022/05/11 11:17:02;;;;;;;10.55;2.10;;;22.90;61.60;;;;;;6133006;23;19997;-85
2022/05/11 11:19:28;;;;;;;4.50;1.30;;;23.00;61.40;;;;;;6132747;23;20005;-86
2022/05/11 11:21:55;;;;;;;6.03;1.73;;;23.10;61.70;;;;;;6131921;23;20439;-86
2022/05/11 11:24:24;;;;;;;5.15;1.67;;;23.10;61.70;;;;;;6157213;23;20017;-86
2022/05/11 11:27:05;;;;;;;5.75;1.65;;;23.20;61.40;;;;;;6131436;23;20483;-85
2022/05/11 11:30:11;;;;;;;5.72;1.38;;;23.30;61.60;;;;;;6157124;23;19997;-88
2022/05/11 11:33:12;;;;;;;5.78;1.63;;;23.30;61.70;;;;;;6157851;23;20010;-86
2022/05/11 11:35:56;;;;;;;3.50;1.38;;;23.40;61.60;;;;;;6130908;23;20013;-86
2022/05/11 11:38:43;;;;;;;4.53;1.50;;;23.50;60.50;;;;;;6131744;23;20357;-86
2022/05/11 11:41:11;;;;;;;5.40;1.63;;;23.60;60.10;;;;;;6157588;23;20041;-85
2022/05/11 11:43:51;;;;;;;5.55;1.40;;;23.50;59.30;;;;;;6157431;23;20001;-85
2022/05/11 11:46:45;;;;;;;5.33;1.57;;;23.60;59.10;;;;;;6157335;23;20002;-86
2022/05/11 11:49:17;;;;;;;6.95;1.73;;;23.70;59.00;;;;;;6131335;23;20054;-85
2022/05/11 11:51:52;;;;;;;6.22;2.15;;;23.70;59.00;;;;;;6157224;23;20002;-85
2022/05/11 11:54:37;;;;;;;6.55;2.25;;;23.70;58.80;;;;;;6157116;23;20037;-86
2022/05/11 11:57:05;;;;;;;5.50;1.98;;;23.80;58.60;;;;;;6131710;23;20028;-84
2022/05/11 11:59:39;;;;;;;5.28;2.00;;;23.80;58.60;;;;;;6134749;23;20120;-85
2022/05/11 12:02:15;;;;;;;7.13;1.70;;;23.90;58.80;;;;;;6131250;23;20002;-85
2022/05/11 12:04:46;;;;;;;3.65;1.50;;;23.90;59.10;;;;;;6130742;23;20001;-85
2022/05/11 12:15:40;;;;;;;7.13;1.73;;;24.10;57.40;;;;;;6156279;23;20044;-85
2022/05/11 12:18:24;;;;;;;4.93;1.60;;;24.10;57.30;;;;;;6130354;23;20010;-85
2022/05/11 12:20:51;;;;;;;4.63;1.88;;;24.10;58.10;;;;;;6156762;23;20009;-85
2022/05/11 12:23:21;;;;;;;4.35;1.70;;;24.20;58.10;;;;;;6156010;23;20001;-85
2022/05/11 12:25:55;;;;;;;4.80;2.03;;;24.20;57.90;;;;;;6130538;23;20305;-85
2022/05/11 12:28:28;;;;;;;4.10;1.83;;;24.30;57.60;;;;;;6130938;23;20025;-89
2022/05/11 12:30:54;;;;;;;6.78;2.47;;;24.30;57.30;;;;;;6131232;23;20005;-86
2022/05/11 12:33:28;;;;;;;6.45;2.17;;;24.40;57.00;;;;;;6162843;23;19990;-86
2022/05/11 12:35:53;;;;;;;6.95;1.90;;;24.40;57.30;;;;;;6156864;23;20001;-85
2022/05/11 12:38:35;;;;;;;7.10;2.47;;;24.40;57.80;;;;;;6133642;23;19992;-84
2022/05/11 12:41:13;;;;;;;8.90;1.98;;;24.50;58.30;;;;;;6157703;23;19994;-86
2022/05/11 12:43:41;;;;;;;7.18;2.10;;;24.50;57.70;;;;;;6144657;23;20064;-86
2022/05/11 12:46:11;;;;;;;6.88;2.08;;;24.60;57.30;;;;;;6159813;23;20005;-85
2022/05/11 12:48:41;;;;;;;6.28;1.88;;;24.60;57.00;;;;;;6182015;23;20005;-86
2022/05/11 12:51:08;;;;;;;;;;;24.70;57.10;;;;;;6184012;23;20002;-85
2022/05/11 12:53:37;;;;;;;4.97;1.67;;;24.80;57.10;;;;;;6158307;23;19954;-88
2022/05/11 12:56:11;;;;;;;5.40;2.00;;;24.80;57.40;;;;;;6141938;23;19998;-85
2022/05/11 12:58:45;;;;;;;8.57;2.42;;;24.90;57.80;;;;;;6157774;23;20002;-85
2022/05/11 13:01:14;;;;;;;5.80;2.05;;;24.90;57.30;;;;;;6130929;23;20364;-85
2022/05/11 13:03:41;;;;;;;6.78;2.65;;;25.00;56.50;;;;;;6131375;23;19997;-85
2022/05/11 13:06:30;;;;;;;8.77;2.65;;;25.00;55.50;;;;;;6157590;23;20085;-85
2022/05/11 13:09:02;;;;;;;6.53;2.25;;;25.00;55.90;;;;;;6157384;23;20024;-86
2022/05/11 13:11:31;;;;;;;14.15;2.50;;;25.00;56.00;;;;;;6130284;23;20352;-86
2022/05/11 13:13:59;;;;;;;6.25;2.63;;;25.10;56.60;;;;;;6156654;23;20005;-85
2022/05/11 13:16:31;;;;;;;8.25;2.42;;;25.10;56.70;;;;;;6157014;23;20017;-84
2022/05/11 13:19:21;;;;;;;5.43;2.42;;;25.10;56.00;;;;;;6130063;23;20088;-85
2022/05/11 13:21:48;;;;;;;6.55;2.25;;;25.20;56.20;;;;;;6156086;23;20002;-85
2022/05/11 13:24:34;;;;;;;5.85;2.45;;;25.20;54.90;;;;;;6115566;23;20024;-85
2022/05/11 13:26:59;;;;;;;5.38;2.58;;;25.20;55.00;;;;;;6157160;23;20429;-84
2022/05/11 13:29:27;;;;;;;5.22;2.17;;;25.30;55.30;;;;;;6155308;23;20085;-85
2022/05/11 13:32:11;;;;;;;6.72;2.10;;;25.30;55.30;;;;;;6158346;23;20412;-85
2022/05/11 13:34:42;;;;;;;8.43;2.10;;;25.30;55.90;;;;;;6156958;23;20005;-85
2022/05/11 13:37:29;;;;;;;8.18;2.53;;;25.30;55.50;;;;;;6157231;23;20408;-86
2022/05/11 13:39:55;;;;;;;10.00;2.38;;;25.40;55.60;;;;;;6158145;23;20029;-85
2022/05/11 13:42:29;;;;;;;5.57;1.90;;;25.40;54.90;;;;;;6156951;23;20005;-85
2022/05/11 13:45:04;;;;;;;6.15;2.28;;;25.50;55.50;;;;;;6156999;23;20010;-85
2022/05/11 13:50:42;;;;;;;5.22;2.10;;;25.50;55.20;;;;;;6158563;23;20016;-85